createdAt,value
2023-04-23T00:00:39.810Z,100.00
2023-04-23T00:02:14.955Z,100.00
2023-04-23T00:03:50.313Z,100.00
2023-04-23T00:05:23.577Z,100.00
2023-04-23T00:06:55.980Z,100.00
2023-04-23T00:08:28.412Z,100.00
2023-04-23T00:10:01.520Z,100.00
2023-04-23T00:11:33.842Z,100.00
2023-04-23T00:13:06.275Z,100.00
2023-04-23T00:14:38.540Z,100.00
2023-04-23T00:16:11.422Z,100.00
2023-04-23T00:17:43.482Z,100.00
2023-04-23T00:19:17.277Z,100.00
2023-04-23T00:20:49.409Z,100.00
2023-04-23T00:22:22.369Z,100.00
2023-04-23T00:23:54.291Z,100.00
2023-04-23T00:25:26.329Z,100.00
2023-04-23T00:26:58.457Z,100.00
2023-04-23T00:28:30.568Z,100.00
2023-04-23T00:30:03.934Z,100.00
2023-04-23T00:31:36.142Z,100.00
2023-04-23T00:33:08.184Z,100.00
2023-04-23T00:34:41.234Z,100.00
2023-04-23T00:36:13.522Z,100.00
2023-04-23T00:37:45.424Z,100.00
2023-04-23T00:39:17.479Z,100.00
2023-04-23T00:40:50.895Z,100.00
2023-04-23T00:42:22.920Z,100.00
2023-04-23T00:43:55.385Z,100.00
2023-04-23T00:45:27.411Z,100.00
2023-04-23T00:46:59.760Z,100.00
2023-04-23T00:48:32.487Z,100.00
2023-04-23T00:50:04.959Z,100.00
2023-04-23T00:51:36.944Z,100.00
2023-04-23T00:53:09.124Z,100.00
2023-04-23T00:54:41.404Z,100.00
2023-04-23T00:56:13.997Z,100.00
2023-04-23T00:57:46.174Z,100.00
2023-04-23T00:59:18.637Z,100.00
2023-04-23T01:00:52.208Z,100.00
2023-04-23T01:02:25.054Z,100.00
2023-04-23T01:03:57.342Z,100.00
2023-04-23T01:05:29.760Z,100.00
2023-04-23T01:07:01.972Z,100.00
2023-04-23T01:08:34.567Z,100.00
2023-04-23T01:10:07.357Z,100.00
2023-04-23T01:11:43.690Z,100.00
2023-04-23T01:13:16.368Z,100.00
2023-04-23T01:14:48.337Z,100.00
2023-04-23T01:16:20.307Z,100.00
2023-04-23T01:17:55.404Z,100.00
2023-04-23T01:19:27.486Z,100.00
2023-04-23T01:20:59.863Z,100.00
2023-04-23T01:22:31.922Z,100.00
2023-04-23T01:24:06.917Z,100.00
2023-04-23T01:25:39.125Z,100.00
2023-04-23T01:27:11.459Z,100.00
2023-04-23T01:28:44.094Z,100.00
2023-04-23T01:30:16.975Z,100.00
2023-04-23T01:31:49.028Z,100.00
2023-04-23T01:33:21.498Z,100.00
2023-04-23T01:34:54.637Z,100.00
2023-04-23T01:36:27.421Z,100.00
2023-04-23T01:37:59.540Z,100.00
2023-04-23T01:39:31.588Z,100.00
2023-04-23T01:41:04.225Z,100.00
2023-04-23T01:42:36.732Z,100.00
2023-04-23T01:44:09.142Z,100.00
2023-04-23T01:45:41.829Z,100.00
2023-04-23T01:47:13.921Z,100.00
2023-04-23T01:48:45.884Z,100.00
2023-04-23T01:50:18.001Z,100.00
2023-04-23T01:51:50.054Z,100.00
2023-04-23T01:53:22.037Z,100.00
2023-04-23T01:54:54.504Z,100.00
2023-04-23T01:56:28.458Z,100.00
2023-04-23T01:58:00.513Z,100.00
2023-04-23T01:59:32.491Z,100.00
2023-04-23T02:01:04.477Z,100.00
2023-04-23T02:02:36.639Z,100.00
2023-04-23T02:04:08.751Z,100.00
2023-04-23T02:05:41.572Z,100.00
2023-04-23T02:07:13.888Z,100.00
2023-04-23T02:08:45.896Z,100.00
2023-04-23T02:10:18.995Z,100.00
2023-04-23T02:11:51.384Z,100.00
2023-04-23T02:13:23.516Z,100.00
2023-04-23T02:14:55.517Z,100.00
2023-04-23T02:16:28.769Z,100.00
2023-04-23T02:18:01.044Z,100.00
2023-04-23T02:19:36.093Z,100.00
2023-04-23T02:21:08.220Z,100.00
2023-04-23T02:22:41.497Z,100.00
2023-04-23T02:24:13.716Z,100.00
2023-04-23T02:25:46.337Z,100.00
2023-04-23T02:27:18.400Z,100.00
2023-04-23T02:28:50.462Z,100.00
2023-04-23T02:30:23.224Z,100.00
2023-04-23T02:31:55.250Z,100.00
2023-04-23T02:33:27.396Z,100.00
2023-04-23T02:34:59.914Z,100.00
2023-04-23T02:36:32.802Z,100.00
2023-04-23T02:38:05.395Z,100.00
2023-04-23T02:39:39.434Z,100.00
2023-04-23T02:41:12.260Z,100.00
2023-04-23T02:42:44.171Z,100.00
2023-04-23T02:44:16.105Z,100.00
2023-04-23T02:45:48.098Z,100.00
2023-04-23T02:47:20.079Z,100.00
2023-04-23T02:48:52.119Z,100.00
2023-04-23T02:50:24.223Z,100.00
2023-04-23T02:51:56.289Z,100.00
2023-04-23T02:53:29.367Z,100.00
2023-04-23T02:55:02.405Z,100.00
2023-04-23T02:56:34.508Z,100.00
2023-04-23T02:58:06.870Z,100.00
2023-04-23T02:59:41.028Z,100.00
2023-04-23T03:01:13.388Z,100.00
2023-04-23T03:02:45.709Z,100.00
2023-04-23T03:04:18.853Z,100.00
2023-04-23T03:05:50.749Z,100.00
2023-04-23T03:07:22.800Z,100.00
2023-04-23T03:08:54.967Z,100.00
2023-04-23T03:10:27.026Z,100.00
2023-04-23T03:11:59.054Z,100.00
2023-04-23T03:13:31.056Z,100.00
2023-04-23T03:15:02.992Z,100.00
2023-04-23T03:16:37.594Z,100.00
2023-04-23T03:18:11.183Z,100.00
2023-04-23T03:19:43.368Z,100.00
2023-04-23T03:21:16.094Z,100.00
2023-04-23T03:22:48.513Z,100.00
2023-04-23T03:24:20.681Z,100.00
2023-04-23T03:25:52.659Z,100.00
2023-04-23T03:27:24.724Z,100.00
2023-04-23T03:28:56.784Z,100.00
2023-04-23T03:30:29.505Z,100.00
2023-04-23T03:32:01.502Z,100.00
2023-04-23T03:33:33.618Z,100.00
2023-04-23T03:35:06.367Z,100.00
2023-04-23T03:36:38.471Z,100.00
2023-04-23T03:38:11.326Z,100.00
2023-04-23T03:39:43.306Z,100.00
2023-04-23T03:41:16.756Z,100.00
2023-04-23T03:42:48.781Z,100.00
2023-04-23T03:44:23.855Z,100.00
2023-04-23T03:45:56.057Z,100.00
2023-04-23T03:47:28.335Z,100.00
2023-04-23T03:49:00.356Z,100.00
2023-04-23T03:50:34.784Z,100.00
2023-04-23T03:52:16.710Z,100.00
2023-04-23T03:53:49.436Z,100.00
2023-04-23T03:55:40.210Z,100.00
2023-04-23T03:57:14.394Z,100.00
2023-04-23T03:59:10.036Z,100.00
2023-04-23T04:00:42.615Z,100.00
2023-04-23T04:02:14.747Z,100.00
2023-04-23T04:03:47.092Z,100.00
2023-04-23T04:05:22.806Z,100.00
2023-04-23T04:06:54.798Z,100.00
2023-04-23T04:08:31.724Z,100.00
2023-04-23T04:10:06.603Z,100.00
2023-04-23T04:11:38.648Z,100.00
2023-04-23T04:13:10.724Z,100.00
2023-04-23T04:14:43.452Z,100.00
2023-04-23T04:16:15.664Z,100.00
2023-04-23T04:17:48.091Z,100.00
2023-04-23T04:19:20.772Z,100.00
2023-04-23T04:20:53.609Z,100.00
2023-04-23T04:22:25.573Z,100.00
2023-04-23T04:23:57.540Z,100.00
2023-04-23T04:25:30.377Z,100.00
2023-04-23T04:27:02.495Z,100.00
2023-04-23T04:28:38.774Z,100.00
2023-04-23T04:30:11.143Z,100.00
2023-04-23T04:31:43.116Z,100.00
2023-04-23T04:33:15.448Z,100.00
2023-04-23T04:34:47.430Z,100.00
2023-04-23T04:36:19.664Z,100.00
2023-04-23T04:37:54.299Z,100.00
2023-04-23T04:39:26.541Z,100.00
2023-04-23T04:41:02.497Z,100.00
2023-04-23T04:42:34.460Z,100.00
2023-04-23T04:44:07.484Z,100.00
2023-04-23T04:45:39.487Z,100.00
2023-04-23T04:47:11.555Z,100.00
2023-04-23T04:48:43.542Z,100.00
2023-04-23T04:50:15.474Z,100.00
2023-04-23T04:51:47.712Z,100.00
2023-04-23T04:53:19.697Z,100.00
2023-04-23T04:54:51.735Z,100.00
2023-04-23T04:56:24.398Z,100.00
2023-04-23T04:57:56.323Z,100.00
2023-04-23T04:59:28.725Z,100.00
2023-04-23T05:01:01.707Z,100.00
2023-04-23T05:02:33.928Z,100.00
2023-04-23T05:04:06.643Z,100.00
2023-04-23T05:05:38.839Z,100.00
2023-04-23T05:07:11.353Z,100.00
2023-04-23T05:08:48.352Z,100.00
2023-04-23T05:10:21.057Z,100.00
2023-04-23T05:11:53.081Z,100.00
2023-04-23T05:13:25.151Z,100.00
2023-04-23T05:14:57.210Z,100.00
2023-04-23T05:16:29.221Z,100.00
2023-04-23T05:18:06.003Z,100.00
2023-04-23T05:19:38.021Z,100.00
2023-04-23T05:21:10.096Z,100.00
2023-04-23T05:22:43.147Z,100.00
2023-04-23T05:24:15.145Z,100.00
2023-04-23T05:25:47.356Z,100.00
2023-04-23T05:27:19.802Z,100.00
2023-04-23T05:28:51.855Z,100.00
2023-04-23T05:30:24.219Z,100.00
2023-04-23T05:31:56.235Z,100.00
2023-04-23T05:33:33.509Z,100.00
2023-04-23T05:35:10.257Z,100.00
2023-04-23T05:36:42.403Z,100.00
2023-04-23T05:38:14.478Z,100.00
2023-04-23T05:39:46.536Z,100.00
2023-04-23T05:41:18.601Z,100.00
2023-04-23T05:42:50.774Z,100.00
2023-04-23T05:44:22.771Z,100.00
2023-04-23T05:45:54.886Z,100.00
2023-04-23T05:47:30.227Z,100.00
2023-04-23T05:49:02.386Z,100.00
2023-04-23T05:50:34.526Z,100.00
2023-04-23T05:52:06.855Z,100.00
2023-04-23T05:53:38.996Z,100.00
2023-04-23T05:55:11.265Z,100.00
2023-04-23T05:56:43.325Z,100.00
2023-04-23T05:58:16.142Z,100.00
2023-04-23T05:59:48.160Z,100.00
2023-04-23T06:01:20.254Z,100.00
2023-04-23T06:02:52.432Z,100.00
2023-04-23T06:04:25.306Z,100.00
2023-04-23T06:05:57.545Z,100.00
2023-04-23T06:07:29.932Z,100.00
2023-04-23T06:09:02.039Z,100.00
2023-04-23T06:10:34.041Z,100.00
2023-04-23T06:12:06.376Z,100.00
2023-04-23T06:13:43.699Z,100.00
2023-04-23T06:15:16.071Z,100.00
2023-04-23T06:16:48.170Z,100.00
2023-04-23T06:18:20.157Z,100.00
2023-04-23T06:19:55.072Z,100.00
2023-04-23T06:21:27.604Z,100.00
2023-04-23T06:23:00.137Z,100.00
2023-04-23T06:24:32.359Z,100.00
2023-04-23T06:26:04.917Z,100.00
2023-04-23T06:27:36.988Z,100.00
2023-04-23T06:29:15.733Z,100.00
2023-04-23T06:31:05.958Z,100.00
2023-04-23T06:32:38.655Z,100.00
2023-04-23T06:34:10.814Z,100.00
2023-04-23T06:35:42.888Z,100.00
2023-04-23T06:37:15.058Z,100.00
2023-04-23T06:38:47.177Z,100.00
2023-04-23T06:40:19.451Z,100.00
2023-04-23T06:41:51.603Z,100.00
2023-04-23T06:43:29.597Z,100.00
2023-04-23T06:45:26.077Z,100.00
2023-04-23T06:46:58.358Z,100.00
2023-04-23T06:48:32.730Z,100.00
2023-04-23T06:50:06.306Z,100.00
2023-04-23T06:51:38.468Z,100.00
2023-04-23T06:53:10.563Z,100.00
2023-04-23T06:54:43.270Z,100.00
2023-04-23T06:56:18.710Z,100.00
2023-04-23T06:57:50.696Z,100.00
2023-04-23T06:59:22.702Z,100.00
2023-04-23T07:01:04.472Z,100.00
2023-04-23T07:02:38.797Z,100.00
2023-04-23T07:04:10.828Z,100.00
2023-04-23T07:05:42.958Z,100.00
2023-04-23T07:07:15.138Z,100.00
2023-04-23T07:08:47.181Z,100.00
2023-04-23T07:10:19.599Z,100.00
2023-04-23T07:11:51.513Z,100.00
2023-04-23T07:13:24.424Z,100.00
2023-04-23T07:14:56.636Z,100.00
2023-04-23T07:16:32.401Z,100.00
2023-04-23T07:18:05.258Z,100.00
2023-04-23T07:19:37.844Z,100.00
2023-04-23T07:21:09.703Z,100.00
2023-04-23T07:22:41.686Z,100.00
2023-04-23T07:24:13.614Z,100.00
2023-04-23T07:25:45.662Z,100.00
2023-04-23T07:27:17.841Z,100.00
2023-04-23T07:28:52.789Z,100.00
2023-04-23T07:30:26.100Z,100.00
2023-04-23T07:31:58.058Z,100.00
2023-04-23T07:33:30.206Z,100.00
2023-04-23T07:35:02.101Z,100.00
2023-04-23T07:36:34.070Z,100.00
2023-04-23T07:38:07.296Z,100.00
2023-04-23T07:39:40.039Z,100.00
2023-04-23T07:41:13.824Z,100.00
2023-04-23T07:42:46.103Z,100.00
2023-04-23T07:44:18.451Z,100.00
2023-04-23T07:45:51.873Z,100.00
2023-04-23T07:47:23.882Z,100.00
2023-04-23T07:48:56.058Z,100.00
2023-04-23T07:50:28.413Z,100.00
2023-04-23T07:52:00.394Z,100.00
2023-04-23T07:53:32.497Z,100.00
2023-04-23T07:55:05.230Z,100.00
2023-04-23T07:56:37.276Z,100.00
2023-04-23T07:58:09.348Z,100.00
2023-04-23T07:59:41.616Z,100.00
2023-04-23T08:01:13.795Z,100.00
2023-04-23T08:02:47.322Z,100.00
2023-04-23T08:05:51.381Z,100.00
2023-04-23T08:07:23.268Z,100.00
2023-04-23T08:08:56.367Z,100.00
2023-04-23T08:10:28.247Z,100.00
2023-04-23T08:12:00.230Z,100.00
2023-04-23T08:13:32.329Z,100.00
2023-04-23T08:15:04.789Z,100.00
2023-04-23T08:16:43.779Z,100.00
2023-04-23T08:18:15.974Z,100.00
2023-04-23T08:19:47.924Z,100.00
2023-04-23T08:21:20.343Z,100.00
2023-04-23T08:22:53.968Z,100.00
2023-04-23T08:24:26.694Z,100.00
2023-04-23T08:25:58.509Z,100.00
2023-04-23T08:27:31.120Z,100.00
2023-04-23T08:29:03.471Z,100.00
2023-04-23T08:30:35.493Z,100.00
2023-04-23T08:32:07.609Z,100.00
2023-04-23T08:33:39.584Z,100.00
2023-04-23T08:35:11.477Z,100.00
2023-04-23T08:36:43.624Z,100.00
2023-04-23T08:38:15.603Z,100.00
2023-04-23T08:39:47.709Z,100.00
2023-04-23T08:41:23.688Z,100.00
2023-04-23T08:43:07.311Z,100.00
2023-04-23T08:44:42.434Z,100.00
2023-04-23T08:46:16.322Z,100.00
2023-04-23T08:47:48.408Z,100.00
2023-04-23T08:49:20.676Z,100.00
2023-04-23T08:50:52.689Z,100.00
2023-04-23T08:52:26.164Z,100.00
2023-04-23T08:53:59.422Z,100.00
2023-04-23T08:55:31.580Z,100.00
2023-04-23T08:57:03.941Z,100.00
2023-04-23T08:58:36.505Z,100.00
2023-04-23T09:00:11.116Z,100.00
2023-04-23T09:01:44.515Z,100.00
2023-04-23T09:03:21.144Z,100.00
2023-04-23T09:04:56.857Z,100.00
2023-04-23T09:06:29.894Z,100.00
2023-04-23T09:08:01.900Z,100.00
2023-04-23T09:09:34.118Z,100.00
2023-04-23T09:11:06.483Z,100.00
2023-04-23T09:12:42.475Z,100.00
2023-04-23T09:14:14.824Z,100.00
2023-04-23T09:15:46.883Z,100.00
2023-04-23T09:17:19.601Z,100.00
2023-04-23T09:18:51.963Z,100.00
2023-04-23T09:20:23.907Z,100.00
2023-04-23T09:21:55.912Z,100.00
2023-04-23T09:23:27.863Z,100.00
2023-04-23T09:25:02.253Z,99.84
2023-04-23T09:26:36.673Z,100.00
2023-04-23T09:28:12.437Z,100.00
2023-04-23T09:29:44.922Z,98.45
2023-04-23T09:31:21.779Z,100.00
2023-04-23T09:32:54.160Z,91.92
2023-04-23T09:34:26.801Z,86.48
2023-04-23T09:35:58.728Z,87.97
2023-04-23T09:37:31.103Z,88.53
2023-04-23T09:39:03.046Z,93.16
2023-04-23T09:40:35.097Z,91.56
2023-04-23T09:42:08.695Z,97.34
2023-04-23T09:43:41.954Z,86.59
2023-04-23T09:45:14.180Z,87.87
2023-04-23T09:46:46.358Z,81.93
2023-04-23T09:48:18.324Z,82.24
2023-04-23T09:49:50.999Z,74.74
2023-04-23T09:51:25.072Z,77.05
2023-04-23T09:52:57.354Z,82.46
2023-04-23T09:54:29.315Z,79.21
2023-04-23T09:56:01.219Z,78.55
2023-04-23T09:57:37.827Z,78.94
2023-04-23T09:59:46.236Z,75.87
2023-04-23T10:01:28.194Z,82.02
2023-04-23T10:03:00.518Z,84.39
2023-04-23T10:04:33.073Z,79.84
2023-04-23T10:06:05.230Z,81.04
2023-04-23T10:07:37.273Z,83.92
2023-04-23T10:09:10.128Z,80.25
2023-04-23T10:10:54.996Z,87.58
2023-04-23T10:12:52.273Z,89.73
2023-04-23T10:14:25.189Z,84.90
2023-04-23T10:16:07.179Z,90.61
2023-04-23T10:17:42.600Z,86.90
2023-04-23T10:19:15.397Z,82.57
2023-04-23T10:20:47.500Z,83.68
2023-04-23T10:22:20.958Z,89.18
2023-04-23T10:23:53.011Z,92.95
2023-04-23T10:25:24.995Z,88.99
2023-04-23T10:26:59.816Z,88.63
2023-04-23T10:28:34.597Z,90.39
2023-04-23T10:30:08.025Z,93.75
2023-04-23T10:31:41.003Z,93.91
2023-04-23T10:33:22.407Z,89.30
2023-04-23T10:35:01.182Z,84.27
2023-04-23T10:36:37.472Z,82.57
2023-04-23T10:38:09.543Z,84.86
2023-04-23T10:39:43.806Z,87.64
2023-04-23T10:41:19.091Z,89.20
2023-04-23T10:42:53.157Z,89.61
2023-04-23T10:44:50.383Z,86.00
2023-04-23T10:46:30.394Z,84.58
2023-04-23T10:48:02.535Z,92.87
2023-04-23T10:49:35.000Z,92.33
2023-04-23T10:51:35.485Z,96.10
2023-04-23T10:52:59.103Z,96.91
2023-04-23T10:54:32.778Z,95.30
2023-04-23T10:56:08.954Z,95.90
2023-04-23T10:58:06.416Z,94.26
2023-04-23T10:59:52.330Z,94.15
2023-04-23T11:01:26.080Z,96.35
2023-04-23T11:02:58.171Z,95.30
2023-04-23T11:04:30.491Z,93.56
2023-04-23T11:06:03.746Z,94.83
2023-04-23T11:07:35.800Z,93.47
2023-04-23T11:09:30.057Z,93.67
2023-04-23T11:11:06.870Z,97.89
2023-04-23T11:12:39.816Z,95.97
2023-04-23T11:14:14.545Z,95.66
2023-04-23T11:15:47.312Z,94.92
2023-04-23T11:17:20.793Z,96.31
2023-04-23T11:19:12.967Z,95.41
2023-04-23T11:20:45.056Z,100.00
2023-04-23T11:22:18.874Z,95.88
2023-04-23T11:23:50.929Z,89.42
2023-04-23T11:25:24.940Z,83.64
2023-04-23T11:26:57.311Z,81.98
2023-04-23T11:28:30.674Z,82.77
2023-04-23T11:30:03.106Z,82.09
2023-04-23T11:31:35.046Z,83.24
2023-04-23T11:33:07.525Z,86.27
2023-04-23T11:34:40.616Z,85.99
2023-04-23T11:36:12.778Z,88.98
2023-04-23T11:37:45.706Z,89.72
2023-04-23T11:39:39.315Z,91.15
2023-04-23T11:41:12.398Z,87.13
2023-04-23T11:42:46.829Z,89.32
2023-04-23T11:44:20.992Z,93.88
2023-04-23T11:45:53.453Z,89.24
2023-04-23T11:47:26.487Z,86.25
2023-04-23T11:49:00.582Z,83.42
2023-04-23T11:50:33.788Z,81.64
2023-04-23T11:52:06.019Z,81.55
2023-04-23T11:53:47.697Z,82.00
2023-04-23T11:55:20.963Z,80.48
2023-04-23T11:56:53.796Z,77.00
2023-04-23T11:58:25.818Z,79.92
2023-04-23T11:59:57.788Z,74.42
2023-04-23T12:01:45.433Z,80.21
2023-04-23T12:03:17.715Z,77.48
2023-04-23T12:04:49.897Z,77.93
2023-04-23T12:06:21.912Z,79.67
2023-04-23T12:07:54.526Z,73.12
2023-04-23T12:09:28.426Z,72.84
2023-04-23T12:11:01.841Z,74.99
2023-04-23T12:12:35.380Z,76.20
2023-04-23T12:14:08.860Z,81.00
2023-04-23T12:15:52.121Z,73.95
2023-04-23T12:17:23.946Z,76.09
2023-04-23T12:18:56.011Z,76.88
2023-04-23T12:20:27.904Z,73.23
2023-04-23T12:22:01.634Z,72.54
2023-04-23T12:23:36.168Z,68.43
2023-04-23T12:25:09.765Z,69.94
2023-04-23T12:26:42.785Z,66.22
2023-04-23T12:28:14.697Z,64.10
2023-04-23T12:29:48.238Z,62.46
2023-04-23T12:31:22.410Z,66.00
2023-04-23T12:33:06.984Z,64.46
2023-04-23T12:34:53.214Z,63.14
2023-04-23T12:36:28.994Z,59.65
2023-04-23T12:38:00.887Z,60.62
2023-04-23T12:39:34.415Z,59.95
2023-04-23T12:41:06.427Z,63.72
2023-04-23T12:42:38.447Z,61.65
2023-04-23T12:44:10.547Z,61.71
2023-04-23T12:45:42.531Z,60.93
2023-04-23T12:47:19.858Z,58.62
2023-04-23T12:48:51.809Z,57.37
2023-04-23T12:50:23.772Z,56.21
2023-04-23T12:51:57.912Z,56.27
2023-04-23T12:53:30.002Z,55.08
2023-04-23T12:55:02.023Z,57.70
2023-04-23T12:56:34.112Z,57.33
2023-04-23T12:58:09.128Z,57.18
2023-04-23T12:59:41.334Z,55.73
2023-04-23T13:01:14.724Z,59.06
2023-04-23T13:02:46.837Z,57.31
2023-04-23T13:04:18.880Z,58.03
2023-04-23T13:05:50.854Z,57.28
2023-04-23T13:07:22.768Z,55.72
2023-04-23T13:08:55.766Z,55.46
2023-04-23T13:10:28.054Z,58.95
2023-04-23T13:12:00.816Z,57.08
2023-04-23T13:13:32.864Z,57.80
2023-04-23T13:15:05.950Z,54.94
2023-04-23T13:16:38.201Z,55.56
2023-04-23T13:18:10.134Z,57.41
2023-04-23T13:19:42.346Z,56.86
2023-04-23T13:21:14.513Z,56.65
2023-04-23T13:22:46.390Z,59.55
2023-04-23T13:24:18.441Z,60.19
2023-04-23T13:25:50.446Z,55.82
2023-04-23T13:27:22.356Z,57.67
2023-04-23T13:28:54.288Z,57.33
2023-04-23T13:30:26.169Z,55.92
2023-04-23T13:31:58.590Z,57.74
2023-04-23T13:33:31.225Z,56.04
2023-04-23T13:35:05.403Z,57.25
2023-04-23T13:36:37.879Z,56.38
2023-04-23T13:38:09.841Z,58.08
2023-04-23T13:39:42.238Z,57.04
2023-04-23T13:41:14.124Z,58.17
2023-04-23T13:42:48.280Z,56.66
2023-04-23T13:44:20.136Z,56.85
2023-04-23T13:45:53.619Z,55.28
2023-04-23T13:47:26.928Z,55.56
2023-04-23T13:48:59.793Z,55.86
2023-04-23T13:50:31.792Z,55.28
2023-04-23T13:52:07.164Z,55.90
2023-04-23T13:53:39.252Z,54.57
2023-04-23T13:55:11.277Z,54.76
2023-04-23T13:56:43.298Z,56.15
2023-04-23T13:58:15.420Z,57.06
2023-04-23T13:59:47.476Z,55.95
2023-04-23T14:01:19.976Z,55.93
2023-04-23T14:02:52.023Z,54.46
2023-04-23T14:04:24.498Z,55.86
2023-04-23T14:05:56.549Z,57.73
2023-04-23T14:07:28.478Z,57.46
2023-04-23T14:09:00.369Z,58.21
2023-04-23T14:10:32.667Z,59.65
2023-04-23T14:12:05.202Z,58.08
2023-04-23T14:13:37.585Z,55.80
2023-04-23T14:15:09.863Z,57.60
2023-04-23T14:16:41.775Z,59.20
2023-04-23T14:18:13.702Z,59.23
2023-04-23T14:19:45.694Z,63.71
2023-04-23T14:21:26.943Z,63.21
2023-04-23T14:23:23.076Z,63.12
2023-04-23T14:24:57.986Z,66.35
2023-04-23T14:28:36.473Z,69.94
2023-04-23T14:30:19.657Z,68.70
2023-04-23T14:31:52.195Z,72.23
2023-04-23T14:33:24.474Z,70.37
2023-04-23T14:34:56.442Z,72.04
2023-04-23T14:36:28.931Z,80.54
2023-04-23T14:38:00.830Z,89.02
2023-04-23T14:39:34.270Z,95.18
2023-04-23T14:41:06.348Z,98.87
2023-04-23T14:42:38.200Z,96.23
2023-04-23T14:44:10.219Z,99.26
2023-04-23T14:45:42.142Z,100.00
2023-04-23T14:47:15.096Z,100.00
2023-04-23T14:48:47.102Z,100.00
2023-04-23T14:50:18.963Z,100.00
2023-04-23T14:51:57.937Z,100.00
2023-04-23T14:53:29.990Z,100.00
2023-04-23T14:55:02.001Z,100.00
2023-04-23T14:56:33.919Z,100.00
2023-04-23T14:58:06.550Z,100.00
2023-04-23T14:59:38.467Z,100.00
2023-04-23T15:01:10.384Z,100.00
2023-04-23T15:02:43.437Z,100.00
2023-04-23T15:04:15.476Z,100.00
2023-04-23T15:05:47.673Z,100.00
2023-04-23T15:07:19.594Z,100.00
2023-04-23T15:08:51.566Z,100.00
2023-04-23T15:10:23.579Z,100.00
2023-04-23T15:11:55.620Z,100.00
2023-04-23T15:13:39.849Z,100.00
2023-04-23T15:15:43.872Z,100.00
2023-04-23T15:17:17.772Z,100.00
2023-04-23T15:18:49.759Z,100.00
2023-04-23T15:20:21.799Z,100.00
2023-04-23T15:21:53.720Z,100.00
2023-04-23T15:23:25.822Z,100.00
2023-04-23T15:24:57.805Z,100.00
2023-04-23T15:26:30.470Z,100.00
2023-04-23T15:28:02.508Z,100.00
2023-04-23T15:29:36.741Z,100.00
2023-04-23T15:31:08.940Z,100.00
2023-04-23T15:32:40.980Z,100.00
2023-04-23T15:34:12.982Z,100.00
2023-04-23T15:35:44.932Z,100.00
2023-04-23T15:37:16.998Z,100.00
2023-04-23T15:38:48.938Z,100.00
2023-04-23T15:40:20.993Z,100.00
2023-04-23T15:41:54.065Z,100.00
2023-04-23T15:43:26.149Z,100.00
2023-04-23T15:44:58.072Z,100.00
2023-04-23T15:46:30.002Z,100.00
2023-04-23T15:48:01.929Z,100.00
2023-04-23T15:49:33.994Z,100.00
2023-04-23T15:51:06.982Z,100.00
2023-04-23T15:52:39.848Z,100.00
2023-04-23T15:54:11.600Z,100.00
2023-04-23T15:55:43.484Z,100.00
2023-04-23T15:57:15.449Z,100.00
2023-04-23T15:58:47.425Z,100.00
2023-04-23T16:00:19.359Z,100.00
2023-04-23T16:01:51.330Z,100.00
2023-04-23T16:03:23.508Z,100.00
2023-04-23T16:04:55.698Z,100.00
2023-04-23T16:06:27.708Z,100.00
2023-04-23T16:08:00.177Z,100.00
2023-04-23T16:09:32.953Z,100.00
2023-04-23T16:11:04.836Z,100.00
2023-04-23T16:12:37.267Z,100.00
2023-04-23T16:14:09.841Z,100.00
2023-04-23T16:15:41.846Z,100.00
2023-04-23T16:17:13.847Z,100.00
2023-04-23T16:18:45.849Z,100.00
2023-04-23T16:20:17.996Z,100.00
2023-04-23T16:21:49.886Z,100.00
2023-04-23T16:23:21.949Z,100.00
2023-04-23T16:24:53.973Z,100.00
2023-04-23T16:26:26.034Z,100.00
2023-04-23T16:27:58.190Z,100.00
2023-04-23T16:29:33.090Z,100.00
2023-04-23T16:31:05.213Z,100.00
2023-04-23T16:32:37.255Z,100.00
2023-04-23T16:34:09.202Z,100.00
2023-04-23T16:35:41.220Z,100.00
2023-04-23T16:37:16.051Z,100.00
2023-04-23T16:38:49.618Z,100.00
2023-04-23T16:40:21.796Z,100.00
2023-04-23T16:41:53.671Z,100.00
2023-04-23T16:43:25.608Z,100.00
2023-04-23T16:44:57.591Z,100.00
2023-04-23T16:46:31.475Z,100.00
2023-04-23T16:48:03.901Z,100.00
2023-04-23T16:49:35.920Z,100.00
2023-04-23T16:51:07.949Z,100.00
2023-04-23T16:52:40.113Z,100.00
2023-04-23T16:54:11.985Z,100.00
2023-04-23T16:55:44.119Z,100.00
2023-04-23T16:57:17.002Z,100.00
2023-04-23T16:58:49.095Z,100.00
2023-04-23T17:00:21.063Z,100.00
2023-04-23T17:01:53.024Z,100.00
2023-04-23T17:03:25.196Z,100.00
2023-04-23T17:04:57.279Z,100.00
2023-04-23T17:06:30.514Z,100.00
2023-04-23T17:08:02.573Z,100.00
2023-04-23T17:09:35.073Z,100.00
2023-04-23T17:11:09.279Z,100.00
2023-04-23T17:12:41.230Z,100.00
2023-04-23T17:14:13.342Z,100.00
2023-04-23T17:15:53.098Z,100.00
2023-04-23T17:17:25.464Z,100.00
2023-04-23T17:18:57.660Z,100.00
2023-04-23T17:20:30.408Z,100.00
2023-04-23T17:22:07.978Z,100.00
2023-04-23T17:23:40.393Z,100.00
2023-04-23T17:25:12.383Z,100.00
2023-04-23T17:26:47.954Z,100.00
2023-04-23T17:28:21.252Z,100.00
2023-04-23T17:29:53.254Z,100.00
2023-04-23T17:31:25.243Z,100.00
2023-04-23T17:32:57.249Z,100.00
2023-04-23T17:34:29.211Z,100.00
2023-04-23T17:36:01.179Z,100.00
2023-04-23T17:37:34.192Z,100.00
2023-04-23T17:39:06.411Z,100.00
2023-04-23T17:40:39.425Z,100.00
2023-04-23T17:42:13.692Z,100.00
2023-04-23T17:43:45.908Z,100.00
2023-04-23T17:45:18.857Z,100.00
2023-04-23T17:46:52.564Z,100.00
2023-04-23T17:48:25.621Z,100.00
2023-04-23T17:49:57.777Z,100.00
2023-04-23T17:51:29.931Z,100.00
2023-04-23T17:53:01.906Z,100.00
2023-04-23T17:54:33.811Z,100.00
2023-04-23T17:56:05.897Z,100.00
2023-04-23T17:57:37.894Z,100.00
2023-04-23T17:59:09.878Z,100.00
2023-04-23T18:00:42.896Z,100.00
2023-04-23T18:02:15.264Z,100.00
2023-04-23T18:03:49.314Z,100.00
2023-04-23T18:05:21.458Z,100.00
2023-04-23T18:06:53.535Z,100.00
2023-04-23T18:08:25.772Z,100.00
2023-04-23T18:09:57.754Z,100.00
2023-04-23T18:11:29.851Z,100.00
2023-04-23T18:13:07.499Z,100.00
2023-04-23T18:14:39.399Z,100.00
2023-04-23T18:16:11.464Z,100.00
2023-04-23T18:17:43.492Z,100.00
2023-04-23T18:19:15.690Z,100.00
2023-04-23T18:20:47.810Z,100.00
2023-04-23T18:22:19.918Z,100.00
2023-04-23T18:23:51.962Z,100.00
2023-04-23T18:25:25.533Z,100.00
2023-04-23T18:26:58.798Z,100.00
2023-04-23T18:28:30.982Z,100.00
2023-04-23T18:30:03.157Z,100.00
2023-04-23T18:31:40.909Z,100.00
2023-04-23T18:33:15.787Z,100.00
2023-04-23T18:34:47.843Z,100.00
2023-04-23T18:36:21.465Z,100.00
2023-04-23T18:37:55.295Z,100.00
2023-04-23T18:39:29.041Z,100.00
2023-04-23T18:41:04.870Z,100.00
2023-04-23T18:42:36.928Z,100.00
2023-04-23T18:44:10.761Z,100.00
2023-04-23T18:45:42.736Z,100.00
2023-04-23T18:47:18.519Z,100.00
2023-04-23T18:48:59.532Z,100.00
2023-04-23T18:50:51.855Z,100.00
2023-04-23T18:52:23.869Z,100.00
2023-04-23T18:53:55.873Z,100.00
2023-04-23T18:55:27.795Z,100.00
2023-04-23T18:56:59.729Z,100.00
2023-04-23T18:58:31.855Z,100.00
2023-04-23T19:00:04.039Z,100.00
2023-04-23T19:01:36.249Z,100.00
2023-04-23T19:03:19.945Z,100.00
2023-04-23T19:04:56.137Z,100.00
2023-04-23T19:06:28.465Z,100.00
2023-04-23T19:08:00.373Z,100.00
2023-04-23T19:09:32.325Z,100.00
2023-04-23T19:11:04.380Z,100.00
2023-04-23T19:12:36.360Z,100.00
2023-04-23T19:14:08.365Z,100.00
2023-04-23T19:15:40.353Z,100.00
2023-04-23T19:17:12.359Z,100.00
2023-04-23T19:18:44.882Z,100.00
2023-04-23T19:20:18.792Z,100.00
2023-04-23T19:21:51.277Z,100.00
2023-04-23T19:23:23.283Z,100.00
2023-04-23T19:24:55.188Z,100.00
2023-04-23T19:26:27.321Z,100.00
2023-04-23T19:27:59.612Z,100.00
2023-04-23T19:29:31.697Z,100.00
2023-04-23T19:31:04.332Z,100.00
2023-04-23T19:32:36.516Z,100.00
2023-04-23T19:34:08.543Z,100.00
2023-04-23T19:35:40.755Z,100.00
2023-04-23T19:37:12.739Z,100.00
2023-04-23T19:38:44.751Z,100.00